SWA499 KRNO-KBUR
Flight info
| Callsign | SWA499 |
|---|---|
| Flight time | 0h 53m |
| Altitude | 35000 |
| Route | ZEFFR9 DARBI FRA REBRG ROKKR3 |
| Aircraft | B737/M-SDE2E3FGHIRWXY/LB1 |
Departure
| Time | 2026-05-05 17:18 |
|---|---|
| Airport | Reno Tahoe International Airport (KRNO) |
Arrival
| Time | 2026-05-05 18:11 |
|---|---|
| Airport | Hollywood Burbank/Bob Hope Airport (KBUR) |
| Time | Latitude | Longitude | Altitude | Speed | Heading |
|---|---|---|---|---|---|
| 2026-05-05 17:06 | 39.50439 | -119.77328 | 4519 ft | 0 kts | 0° |
| 2026-05-05 17:10 | 39.50425 | -119.77328 | 4534 ft | 4 kts | 0° |
| 2026-05-05 17:10 | 39.50398 | -119.77328 | 4534 ft | 3 kts | 0° |
| 2026-05-05 17:11 | 39.50379 | -119.77330 | 4535 ft | 4 kts | 42° |
| 2026-05-05 17:11 | 39.50374 | -119.77355 | 4532 ft | 4 kts | 90° |
| 2026-05-05 17:11 | 39.50374 | -119.77368 | 4534 ft | 0 kts | 90° |
| 2026-05-05 17:14 | 39.50374 | -119.77350 | 4532 ft | 9 kts | 90° |
| 2026-05-05 17:14 | 39.50373 | -119.77218 | 4534 ft | 16 kts | 90° |
| 2026-05-05 17:14 | 39.50386 | -119.77082 | 4530 ft | 15 kts | 51° |
| 2026-05-05 17:14 | 39.50494 | -119.77067 | 4530 ft | 18 kts | 0° |
| 2026-05-05 17:15 | 39.50646 | -119.77067 | 4532 ft | 25 kts | 360° |
| 2026-05-05 17:15 | 39.50830 | -119.77067 | 4530 ft | 26 kts | 0° |
| 2026-05-05 17:15 | 39.51004 | -119.77066 | 4531 ft | 24 kts | 0° |
| 2026-05-05 17:15 | 39.51169 | -119.77065 | 4534 ft | 23 kts | 0° |
| 2026-05-05 17:16 | 39.51320 | -119.77065 | 4532 ft | 20 kts | 0° |
| 2026-05-05 17:16 | 39.51374 | -119.76935 | 4532 ft | 19 kts | 90° |
| 2026-05-05 17:16 | 39.51374 | -119.76789 | 4532 ft | 15 kts | 90° |
| 2026-05-05 17:16 | 39.51349 | -119.76678 | 4529 ft | 13 kts | 157° |
| 2026-05-05 17:17 | 39.51319 | -119.76676 | 4531 ft | 5 kts | 181° |
| 2026-05-05 17:17 | 39.51041 | -119.76677 | 4535 ft | 77 kts | 180° |
| 2026-05-05 17:17 | 39.50271 | -119.76679 | 4527 ft | 142 kts | 180° |
| 2026-05-05 17:17 | 39.49127 | -119.76680 | 4738 ft | 176 kts | 180° |
| 2026-05-05 17:18 | 39.47891 | -119.76701 | 5505 ft | 176 kts | 181° |
| 2026-05-05 17:18 | 39.46633 | -119.76758 | 6230 ft | 190 kts | 182° |
| 2026-05-05 17:18 | 39.45222 | -119.76827 | 6610 ft | 217 kts | 182° |
| 2026-05-05 17:18 | 39.43611 | -119.76902 | 6850 ft | 246 kts | 182° |
| 2026-05-05 17:19 | 39.41819 | -119.76957 | 7171 ft | 273 kts | 180° |
| 2026-05-05 17:19 | 39.39866 | -119.76960 | 7890 ft | 284 kts | 179° |
| 2026-05-05 17:19 | 39.37899 | -119.76959 | 8796 ft | 289 kts | 178° |
| 2026-05-05 17:19 | 39.35880 | -119.76961 | 9783 ft | 291 kts | 178° |
| 2026-05-05 17:20 | 39.33825 | -119.76965 | 10528 ft | 303 kts | 178° |
| 2026-05-05 17:20 | 39.31619 | -119.76964 | 10748 ft | 331 kts | 177° |
| 2026-05-05 17:20 | 39.29259 | -119.76901 | 11277 ft | 345 kts | 176° |
| 2026-05-05 17:20 | 39.26845 | -119.76804 | 12079 ft | 350 kts | 175° |
| 2026-05-05 17:21 | 39.24385 | -119.76699 | 12888 ft | 356 kts | 175° |
| 2026-05-05 17:21 | 39.21884 | -119.76593 | 13704 ft | 362 kts | 174° |
| 2026-05-05 17:21 | 39.19343 | -119.76491 | 14479 ft | 368 kts | 174° |
| 2026-05-05 17:22 | 39.14177 | -119.76293 | 16218 ft | 374 kts | 174° |
| 2026-05-05 17:22 | 39.11591 | -119.76195 | 17011 ft | 379 kts | 174° |
| 2026-05-05 17:22 | 39.08935 | -119.76095 | 17796 ft | 385 kts | 174° |
| 2026-05-05 17:22 | 39.06233 | -119.75994 | 18534 ft | 391 kts | 174° |
| 2026-05-05 17:23 | 39.03498 | -119.75891 | 19234 ft | 395 kts | 175° |
| 2026-05-05 17:23 | 39.00737 | -119.75788 | 19959 ft | 399 kts | 174° |
| 2026-05-05 17:23 | 38.97948 | -119.75684 | 20665 ft | 403 kts | 174° |
| 2026-05-05 17:23 | 38.95136 | -119.75579 | 21355 ft | 407 kts | 174° |
| 2026-05-05 17:24 | 38.92283 | -119.75473 | 22033 ft | 412 kts | 174° |
| 2026-05-05 17:24 | 38.89405 | -119.75366 | 22692 ft | 417 kts | 174° |
| 2026-05-05 17:24 | 38.86487 | -119.75258 | 23333 ft | 422 kts | 174° |
| 2026-05-05 17:24 | 38.83533 | -119.75149 | 23867 ft | 427 kts | 174° |
| 2026-05-05 17:25 | 38.80542 | -119.75039 | 24402 ft | 431 kts | 174° |
| 2026-05-05 17:25 | 38.78558 | -119.74967 | 24768 ft | 433 kts | 174° |
| 2026-05-05 17:25 | 38.74511 | -119.74819 | 25502 ft | 437 kts | 173° |
| 2026-05-05 17:25 | 38.71455 | -119.74708 | 26016 ft | 441 kts | 173° |
| 2026-05-05 17:26 | 38.68372 | -119.74595 | 26532 ft | 444 kts | 173° |
| 2026-05-05 17:26 | 38.65270 | -119.74482 | 27050 ft | 448 kts | 173° |
| 2026-05-05 17:26 | 38.62184 | -119.74369 | 27523 ft | 451 kts | 173° |
| 2026-05-05 17:26 | 38.59031 | -119.74254 | 28000 ft | 455 kts | 173° |
| 2026-05-05 17:27 | 38.55852 | -119.74138 | 28493 ft | 458 kts | 173° |
| 2026-05-05 17:27 | 38.52648 | -119.74022 | 28969 ft | 461 kts | 173° |
| 2026-05-05 17:27 | 38.49428 | -119.73905 | 29418 ft | 465 kts | 173° |
| 2026-05-05 17:27 | 38.46179 | -119.73787 | 29839 ft | 468 kts | 173° |
| 2026-05-05 17:28 | 38.42913 | -119.73668 | 30204 ft | 471 kts | 174° |
| 2026-05-05 17:28 | 38.39631 | -119.73550 | 30603 ft | 472 kts | 174° |
| 2026-05-05 17:28 | 38.36339 | -119.73433 | 31012 ft | 473 kts | 174° |
| 2026-05-05 17:28 | 38.33050 | -119.73314 | 31480 ft | 472 kts | 174° |
| 2026-05-05 17:29 | 38.29772 | -119.73193 | 32045 ft | 468 kts | 174° |
| 2026-05-05 17:29 | 38.26538 | -119.72952 | 32646 ft | 463 kts | 172° |
| 2026-05-05 17:29 | 38.23335 | -119.72594 | 33095 ft | 462 kts | 171° |
| 2026-05-05 17:29 | 38.20171 | -119.72191 | 33488 ft | 462 kts | 171° |
| 2026-05-05 17:30 | 38.16980 | -119.71774 | 33924 ft | 461 kts | 172° |
| 2026-05-05 17:30 | 38.13795 | -119.71367 | 34326 ft | 459 kts | 172° |
| 2026-05-05 17:30 | 38.10619 | -119.70975 | 34672 ft | 459 kts | 172° |
| 2026-05-05 17:30 | 38.07433 | -119.70593 | 34962 ft | 459 kts | 173° |
| 2026-05-05 17:31 | 38.04232 | -119.70216 | 34974 ft | 466 kts | 173° |
| 2026-05-05 17:31 | 37.97725 | -119.69463 | 34986 ft | 471 kts | 173° |
| 2026-05-05 17:32 | 37.91213 | -119.68716 | 34994 ft | 469 kts | 173° |
| 2026-05-05 17:32 | 37.84683 | -119.67965 | 35007 ft | 474 kts | 173° |
| 2026-05-05 17:33 | 37.78094 | -119.67207 | 35007 ft | 476 kts | 173° |
| 2026-05-05 17:33 | 37.71493 | -119.66450 | 35005 ft | 476 kts | 173° |
| 2026-05-05 17:34 | 37.64896 | -119.65694 | 35014 ft | 476 kts | 173° |
| 2026-05-05 17:34 | 37.58303 | -119.64940 | 35020 ft | 475 kts | 173° |
| 2026-05-05 17:35 | 37.51760 | -119.64193 | 35028 ft | 475 kts | 173° |
| 2026-05-05 17:35 | 37.45182 | -119.63444 | 35020 ft | 475 kts | 173° |
| 2026-05-05 17:36 | 37.38596 | -119.62694 | 35030 ft | 474 kts | 173° |
| 2026-05-05 17:36 | 37.32023 | -119.61948 | 35024 ft | 475 kts | 173° |
| 2026-05-05 17:37 | 37.25438 | -119.61201 | 35027 ft | 475 kts | 174° |
| 2026-05-05 17:37 | 37.18860 | -119.60456 | 35022 ft | 475 kts | 173° |
| 2026-05-05 17:38 | 37.12261 | -119.59710 | 35029 ft | 475 kts | 174° |
| 2026-05-05 17:38 | 37.05649 | -119.59472 | 35058 ft | 477 kts | 179° |
| 2026-05-05 17:39 | 36.98987 | -119.59641 | 35037 ft | 480 kts | 180° |
| 2026-05-05 17:39 | 36.92355 | -119.59813 | 35039 ft | 479 kts | 180° |
| 2026-05-05 17:40 | 36.85692 | -119.59950 | 35054 ft | 479 kts | 180° |
| 2026-05-05 17:40 | 36.79027 | -119.60069 | 35049 ft | 478 kts | 179° |
| 2026-05-05 17:41 | 36.72383 | -119.60185 | 35052 ft | 477 kts | 180° |
| 2026-05-05 17:41 | 36.65744 | -119.60303 | 35052 ft | 476 kts | 179° |
| 2026-05-05 17:42 | 36.59110 | -119.60421 | 35054 ft | 476 kts | 180° |
| 2026-05-05 17:42 | 36.52476 | -119.60539 | 35055 ft | 477 kts | 179° |
| 2026-05-05 17:43 | 36.45841 | -119.60657 | 35064 ft | 477 kts | 180° |
| 2026-05-05 17:43 | 36.39194 | -119.60775 | 35064 ft | 478 kts | 180° |
| 2026-05-05 17:44 | 36.32570 | -119.60892 | 35072 ft | 479 kts | 180° |
| 2026-05-05 17:44 | 36.25883 | -119.61011 | 35062 ft | 481 kts | 180° |
| 2026-05-05 17:45 | 36.19194 | -119.61129 | 35067 ft | 481 kts | 180° |
| 2026-05-05 17:45 | 36.13622 | -119.61227 | 35061 ft | 482 kts | 180° |
| 2026-05-05 17:46 | 36.06912 | -119.61345 | 35060 ft | 482 kts | 180° |
| 2026-05-05 17:46 | 36.00205 | -119.61463 | 35055 ft | 483 kts | 180° |
| 2026-05-05 17:47 | 35.93513 | -119.62156 | 35058 ft | 484 kts | 189° |
| 2026-05-05 17:47 | 35.86879 | -119.63665 | 35053 ft | 485 kts | 190° |
| 2026-05-05 17:48 | 35.80234 | -119.65133 | 35055 ft | 485 kts | 189° |
| 2026-05-05 17:48 | 35.73575 | -119.66485 | 35055 ft | 485 kts | 188° |
| 2026-05-05 17:49 | 35.66901 | -119.67818 | 35054 ft | 485 kts | 187° |
| 2026-05-05 17:49 | 35.63539 | -119.67968 | 34909 ft | 486 kts | 174° |
| 2026-05-05 17:49 | 35.60152 | -119.67509 | 34293 ft | 488 kts | 170° |
| 2026-05-05 17:49 | 35.56822 | -119.66913 | 33733 ft | 482 kts | 170° |
| 2026-05-05 17:50 | 35.53511 | -119.66347 | 33079 ft | 478 kts | 171° |
| 2026-05-05 17:50 | 35.50223 | -119.65856 | 32496 ft | 474 kts | 172° |
| 2026-05-05 17:50 | 35.46965 | -119.65388 | 31926 ft | 469 kts | 169° |
| 2026-05-05 17:50 | 35.43773 | -119.64641 | 31342 ft | 464 kts | 164° |
| 2026-05-05 17:51 | 35.40660 | -119.63692 | 30795 ft | 460 kts | 162° |
| 2026-05-05 17:51 | 35.37617 | -119.62707 | 30248 ft | 457 kts | 162° |
| 2026-05-05 17:51 | 35.34551 | -119.61737 | 29629 ft | 454 kts | 163° |
| 2026-05-05 17:51 | 35.31495 | -119.60812 | 29021 ft | 450 kts | 163° |
| 2026-05-05 17:52 | 35.28463 | -119.59925 | 28464 ft | 445 kts | 164° |
| 2026-05-05 17:52 | 35.25470 | -119.59059 | 27897 ft | 440 kts | 165° |
| 2026-05-05 17:52 | 35.22555 | -119.58013 | 27333 ft | 433 kts | 153° |
| 2026-05-05 17:52 | 35.20036 | -119.56105 | 26840 ft | 422 kts | 140° |
| 2026-05-05 17:53 | 35.17724 | -119.53914 | 26280 ft | 418 kts | 139° |
| 2026-05-05 17:53 | 35.15451 | -119.51699 | 25732 ft | 415 kts | 139° |
| 2026-05-05 17:53 | 35.13198 | -119.49510 | 25195 ft | 413 kts | 140° |
| 2026-05-05 17:53 | 35.10947 | -119.47351 | 24652 ft | 410 kts | 140° |
| 2026-05-05 17:54 | 35.08697 | -119.45217 | 24099 ft | 409 kts | 141° |
| 2026-05-05 17:54 | 35.06448 | -119.43099 | 23529 ft | 407 kts | 141° |
| 2026-05-05 17:54 | 35.04212 | -119.40999 | 22921 ft | 404 kts | 141° |
| 2026-05-05 17:54 | 35.01989 | -119.38913 | 22350 ft | 401 kts | 141° |
| 2026-05-05 17:55 | 34.99780 | -119.36861 | 21807 ft | 397 kts | 144° |
| 2026-05-05 17:55 | 34.97445 | -119.35086 | 21248 ft | 394 kts | 150° |
| 2026-05-05 17:55 | 34.95062 | -119.33537 | 20723 ft | 391 kts | 152° |
| 2026-05-05 17:55 | 34.92659 | -119.32018 | 20188 ft | 387 kts | 152° |
| 2026-05-05 17:56 | 34.90292 | -119.30480 | 19672 ft | 384 kts | 152° |
| 2026-05-05 17:56 | 34.87961 | -119.28925 | 19166 ft | 381 kts | 151° |
| 2026-05-05 17:56 | 34.85648 | -119.27368 | 18645 ft | 378 kts | 151° |
| 2026-05-05 17:56 | 34.83349 | -119.25839 | 18107 ft | 375 kts | 152° |
| 2026-05-05 17:57 | 34.81062 | -119.24333 | 17529 ft | 372 kts | 152° |
| 2026-05-05 17:57 | 34.78785 | -119.22837 | 16975 ft | 369 kts | 152° |
| 2026-05-05 17:57 | 34.76533 | -119.21358 | 16433 ft | 367 kts | 152° |
| 2026-05-05 17:57 | 34.74298 | -119.19888 | 15909 ft | 364 kts | 152° |
| 2026-05-05 17:58 | 34.72078 | -119.18427 | 15379 ft | 362 kts | 152° |
| 2026-05-05 17:58 | 34.69871 | -119.16977 | 14879 ft | 360 kts | 152° |
| 2026-05-05 17:58 | 34.67699 | -119.15538 | 14568 ft | 351 kts | 150° |
| 2026-05-05 17:58 | 34.65641 | -119.13938 | 14066 ft | 350 kts | 145° |
| 2026-05-05 17:59 | 34.63647 | -119.12254 | 13531 ft | 349 kts | 144° |
| 2026-05-05 17:59 | 34.61657 | -119.10583 | 13008 ft | 347 kts | 145° |
| 2026-05-05 17:59 | 34.59670 | -119.08940 | 12504 ft | 344 kts | 145° |
| 2026-05-05 17:59 | 34.57703 | -119.07324 | 12172 ft | 335 kts | 145° |
| 2026-05-05 18:00 | 34.55813 | -119.05775 | 12044 ft | 322 kts | 145° |
| 2026-05-05 18:00 | 34.54003 | -119.04294 | 11780 ft | 316 kts | 145° |
| 2026-05-05 18:00 | 34.52185 | -119.02804 | 11429 ft | 314 kts | 145° |
| 2026-05-05 18:00 | 34.50380 | -119.01327 | 11060 ft | 312 kts | 145° |
| 2026-05-05 18:01 | 34.48594 | -118.99865 | 10734 ft | 308 kts | 145° |
| 2026-05-05 18:01 | 34.46823 | -118.98417 | 10397 ft | 305 kts | 144° |
| 2026-05-05 18:01 | 34.45382 | -118.96617 | 10106 ft | 297 kts | 116° |
| 2026-05-05 18:01 | 34.44705 | -118.94302 | 9682 ft | 285 kts | 108° |
| 2026-05-05 18:02 | 34.43630 | -118.92374 | 9433 ft | 278 kts | 142° |
| 2026-05-05 18:02 | 34.41968 | -118.91235 | 9276 ft | 275 kts | 153° |
| 2026-05-05 18:02 | 34.40241 | -118.90148 | 9002 ft | 281 kts | 150° |
| 2026-05-05 18:02 | 34.38523 | -118.88947 | 8777 ft | 288 kts | 148° |
| 2026-05-05 18:03 | 34.36823 | -118.87654 | 8521 ft | 288 kts | 146° |
| 2026-05-05 18:03 | 34.35189 | -118.86341 | 8252 ft | 283 kts | 145° |
| 2026-05-05 18:03 | 34.33577 | -118.85000 | 8002 ft | 277 kts | 144° |
| 2026-05-05 18:03 | 34.32011 | -118.83671 | 7764 ft | 273 kts | 144° |
| 2026-05-05 18:04 | 34.30459 | -118.82344 | 7543 ft | 273 kts | 144° |
| 2026-05-05 18:04 | 34.28904 | -118.81012 | 7307 ft | 274 kts | 144° |
| 2026-05-05 18:04 | 34.27359 | -118.79671 | 7069 ft | 271 kts | 139° |
| 2026-05-05 18:04 | 34.26230 | -118.77895 | 6788 ft | 266 kts | 114° |
| 2026-05-05 18:05 | 34.25473 | -118.75870 | 6508 ft | 265 kts | 112° |
| 2026-05-05 18:05 | 34.24742 | -118.73841 | 6183 ft | 259 kts | 112° |
| 2026-05-05 18:05 | 34.24032 | -118.71872 | 5875 ft | 252 kts | 112° |
| 2026-05-05 18:05 | 34.23342 | -118.69973 | 5615 ft | 250 kts | 112° |
| 2026-05-05 18:06 | 34.22640 | -118.68053 | 5340 ft | 248 kts | 113° |
| 2026-05-05 18:06 | 34.22168 | -118.66771 | 5166 ft | 247 kts | 113° |
| 2026-05-05 18:06 | 34.21247 | -118.64270 | 4797 ft | 246 kts | 113° |
| 2026-05-05 18:06 | 34.20553 | -118.62389 | 4512 ft | 244 kts | 113° |
| 2026-05-05 18:07 | 34.20131 | -118.60442 | 4374 ft | 235 kts | 94° |
| 2026-05-05 18:07 | 34.20067 | -118.58511 | 4254 ft | 227 kts | 90° |
| 2026-05-05 18:07 | 34.20041 | -118.56608 | 3958 ft | 225 kts | 90° |
| 2026-05-05 18:07 | 34.20019 | -118.54739 | 3677 ft | 222 kts | 90° |
| 2026-05-05 18:08 | 34.19994 | -118.52874 | 3407 ft | 220 kts | 90° |
| 2026-05-05 18:08 | 34.19969 | -118.51071 | 3096 ft | 208 kts | 91° |
| 2026-05-05 18:08 | 34.19947 | -118.49384 | 2823 ft | 195 kts | 91° |
| 2026-05-05 18:08 | 34.19927 | -118.47798 | 2565 ft | 183 kts | 91° |
| 2026-05-05 18:09 | 34.19908 | -118.46318 | 2320 ft | 171 kts | 91° |
| 2026-05-05 18:09 | 34.19890 | -118.44915 | 2096 ft | 163 kts | 91° |
| 2026-05-05 18:09 | 34.19873 | -118.43583 | 1880 ft | 155 kts | 91° |
| 2026-05-05 18:09 | 34.19856 | -118.42288 | 1714 ft | 153 kts | 91° |
| 2026-05-05 18:10 | 34.19841 | -118.41024 | 1473 ft | 145 kts | 91° |
| 2026-05-05 18:10 | 34.19826 | -118.39844 | 1265 ft | 137 kts | 90° |
| 2026-05-05 18:10 | 34.19816 | -118.38724 | 1072 ft | 132 kts | 91° |
| 2026-05-05 18:10 | 34.19799 | -118.37604 | 901 ft | 137 kts | 91° |
| 2026-05-05 18:11 | 34.19784 | -118.36428 | 719 ft | 137 kts | 91° |
| 2026-05-05 18:11 | 34.19774 | -118.35618 | 697 ft | 44 kts | 91° |
| 2026-05-05 18:11 | 34.19770 | -118.35319 | 694 ft | 35 kts | 91° |
| 2026-05-05 18:11 | 34.19766 | -118.35075 | 696 ft | 21 kts | 91° |
| 2026-05-05 18:12 | 34.19717 | -118.34997 | 686 ft | 0 kts | 98° |
| 2026-05-05 18:13 | 34.19717 | -118.34993 | 686 ft | 2 kts | 95° |
| 2026-05-05 18:13 | 34.19717 | -118.34976 | 691 ft | 2 kts | 92° |
| 2026-05-05 18:13 | 34.19716 | -118.34956 | 691 ft | 3 kts | 92° |
| 2026-05-05 18:13 | 34.19705 | -118.34936 | 688 ft | 4 kts | 150° |
| 2026-05-05 18:14 | 34.19674 | -118.34933 | 690 ft | 2 kts | 180° |
| 2026-05-05 18:14 | 34.19659 | -118.34934 | 692 ft | 1 kts | 181° |
| 2026-05-05 18:14 | 34.19654 | -118.34934 | 691 ft | 0 kts | 181° |